Time;durP1;ratioP1;P1;durP2;ratioP2;P2;SDS_P1;SDS_P2;PMS_P1;PMS_P2;Temp;Humidity;BMP_temperature;BMP_pressure;BME280_temperature;BME280_humidity;BME280_pressure;Samples;Min_cycle;Max_cycle;Signal;HPM_P1;HPM_P2
2023/06/30 00:00:12;;;;;;;1.20;1.20;;;;;;;14.61;87.41;96959.44;5044108;28;20049;-62
2023/06/30 00:02:46;;;;;;;1.20;1.20;;;;;;;14.77;88.14;96979.34;5045197;28;20132;-61
2023/06/30 00:05:16;;;;;;;1.13;1.13;;;;;;;13.95;87.89;96855.13;5043677;28;20048;-62
2023/06/30 00:07:43;;;;;;;1.10;1.10;;;;;;;14.49;88.77;96968.22;5043852;28;20431;-61
2023/06/30 00:10:10;;;;;;;1.20;1.20;;;;;;;14.37;88.75;96943.53;5045041;28;20052;-61
2023/06/30 00:12:37;;;;;;;1.30;1.30;;;;;;;14.60;88.52;96982.94;5045050;28;20064;-61
2023/06/30 00:15:05;;;;;;;1.20;1.20;;;;;;;14.15;88.03;96925.94;5044095;28;20418;-61
2023/06/30 00:17:31;;;;;;;1.00;1.00;;;;;;;14.09;90.67;96943.44;5044789;28;20491;-62
2023/06/30 00:19:59;;;;;;;1.13;1.13;;;;;;;13.89;89.27;96906.03;5045396;28;20053;-61
2023/06/30 00:22:26;;;;;;;1.00;1.00;;;;;;;13.88;88.43;96921.94;5043761;28;20434;-62
2023/06/30 00:25:00;;;;;;;1.33;1.33;;;;;;;14.29;90.06;96986.50;5043727;28;20057;-62
2023/06/30 00:27:26;;;;;;;;;;;;;;;14.22;89.21;96983.66;5045661;28;20079;-61
2023/06/30 00:29:53;;;;;;;1.10;1.10;;;;;;;13.92;90.55;96972.06;5048326;28;19925;-62
2023/06/30 00:32:20;;;;;;;1.30;1.30;;;;;;;12.03;90.09;96678.91;5063527;28;20059;-60
2023/06/30 00:34:47;;;;;;;1.20;1.20;;;;;;;13.70;90.62;96933.00;5064625;28;20501;-62
2023/06/30 00:37:13;;;;;;;1.20;1.20;;;;;;;13.87;92.14;96975.22;5064592;28;20132;-62
2023/06/30 00:39:40;;;;;;;1.20;1.20;;;;;;;13.90;90.01;96957.72;5064305;28;20230;-61
2023/06/30 00:42:08;;;;;;;1.20;1.20;;;;;;;13.90;89.15;96941.00;5064349;28;20114;-62
2023/06/30 00:44:35;;;;;;;1.10;1.10;;;;;;;13.90;89.23;96941.00;5054670;28;20056;-61
2023/06/30 00:47:02;;;;;;;1.20;1.20;;;;;;;13.90;89.68;96957.72;5064571;28;20529;-61
2023/06/30 00:49:30;;;;;;;1.20;1.20;;;;;;;13.94;89.63;96930.69;5063207;28;20048;-61
2023/06/30 00:51:58;;;;;;;1.13;1.13;;;;;;;14.02;89.19;96921.94;5063208;28;20135;-63
2023/06/30 00:54:26;;;;;;;1.13;1.13;;;;;;;14.19;88.57;96959.41;5063260;28;20059;-62
2023/06/30 00:56:53;;;;;;;1.20;1.20;;;;;;;14.11;89.23;96935.50;5064553;28;20059;-61
2023/06/30 00:59:21;;;;;;;1.20;1.20;;;;;;;14.39;88.88;96969.00;5064268;28;20313;-62
2023/06/30 01:01:51;;;;;;;1.20;1.20;;;;;;;14.58;88.34;96988.13;5063746;28;20052;-62
2023/06/30 01:04:21;;;;;;;1.20;1.20;;;;;;;14.61;87.94;96988.13;5062600;28;20068;-64
2023/06/30 01:07:01;;;;;;;1.20;1.20;;;;;;;14.16;88.28;96943.47;5063958;28;20058;-61
2023/06/30 01:09:35;;;;;;;1.20;1.20;;;;;;;14.31;89.49;96972.97;5064500;28;20048;-62
2023/06/30 01:12:03;;;;;;;1.17;1.17;;;;;;;14.26;89.85;96960.22;5064136;28;20052;-62
2023/06/30 01:14:31;;;;;;;1.30;1.30;;;;;;;14.15;89.71;96925.16;5064089;28;20147;-61
2023/06/30 01:17:00;;;;;;;1.33;1.33;;;;;;;14.48;88.85;96988.94;5064587;28;20053;-61
2023/06/30 01:19:44;;;;;;;1.20;1.20;;;;;;;14.15;88.63;96947.44;5062702;28;20053;-61
2023/06/30 01:22:25;;;;;;;1.20;1.20;;;;;;;14.13;88.95;96949.84;5063935;28;20072;-62
2023/06/30 01:24:58;;;;;;;1.10;1.10;;;;;;;14.32;88.60;96980.16;5063665;28;20057;-61
2023/06/30 01:27:24;;;;;;;1.30;1.30;;;;;;;14.17;89.43;96961.78;5062725;28;20044;-62
2023/06/30 01:29:52;;;;;;;1.23;1.23;;;;;;;13.86;89.88;96923.53;5062599;28;20048;-62
2023/06/30 01:32:19;;;;;;;1.20;1.20;;;;;;;13.83;89.80;96919.53;5062404;28;20056;-61
2023/06/30 01:34:47;;;;;;;1.00;1.00;;;;;;;14.18;89.25;96975.31;5063706;28;20056;-61
2023/06/30 01:37:14;;;;;;;1.20;1.20;;;;;;;14.16;89.47;96971.31;5063958;28;20058;-61
2023/06/30 01:39:41;;;;;;;1.10;1.10;;;;;;;13.93;89.79;96940.22;5062376;28;20443;-62
2023/06/30 01:42:09;;;;;;;1.13;1.13;;;;;;;13.93;90.92;96934.66;5063871;28;20157;-63
2023/06/30 01:44:37;;;;;;;1.00;1.00;;;;;;;13.73;90.12;96905.59;5062531;28;20053;-61
2023/06/30 01:47:05;;;;;;;1.10;1.10;;;;;;;13.99;91.50;96977.66;5063972;28;20060;-62
2023/06/30 01:49:34;;;;;;;1.20;1.20;;;;;;;13.69;90.95;96919.47;5064383;28;20478;-61
2023/06/30 01:52:01;;;;;;;1.08;1.08;;;;;;;13.87;92.68;96952.94;5063870;28;20438;-62
2023/06/30 01:54:28;;;;;;;1.25;1.25;;;;;;;13.80;91.81;96925.88;5063572;28;20114;-60
2023/06/30 01:56:55;;;;;;;1.17;1.17;;;;;;;13.55;91.15;96897.19;5063659;28;20044;-61
2023/06/30 01:59:22;;;;;;;1.17;1.17;;;;;;;13.94;91.99;96953.75;5064188;28;20059;-61
2023/06/30 02:01:49;;;;;;;1.00;1.00;;;;;;;13.72;91.91;96906.78;5064044;28;20418;-61
2023/06/30 02:04:16;;;;;;;1.00;1.00;;;;;;;13.41;90.21;96875.69;5063890;28;20545;-62
2023/06/30 02:06:43;;;;;;;0.98;0.98;;;;;;;13.92;89.96;96960.91;5063362;28;20542;-61
2023/06/30 02:09:12;;;;;;;1.20;1.20;;;;;;;13.76;90.56;96918.72;5061935;28;20044;-61
2023/06/30 02:11:39;;;;;;;1.10;1.10;;;;;;;13.94;89.90;96955.75;5066298;28;20075;-61
2023/06/30 02:14:06;;;;;;;1.10;1.10;;;;;;;13.32;90.87;96871.69;5067710;28;20822;-61
2023/06/30 02:16:33;;;;;;;1.10;1.10;;;;;;;13.76;90.68;96943.75;5065423;28;20061;-61
2023/06/30 02:18:59;;;;;;;1.30;1.30;;;;;;;13.51;90.45;96902.72;5065539;28;20446;-63
2023/06/30 02:21:26;;;;;;;1.00;1.00;;;;;;;13.62;90.99;96923.03;5067286;28;20059;-62
2023/06/30 02:23:53;;;;;;;0.95;0.95;;;;;;;13.49;91.71;96905.13;5066666;28;20064;-61
2023/06/30 02:26:20;;;;;;;1.20;1.20;;;;;;;13.59;92.61;96895.22;5067005;28;20372;-61
2023/06/30 02:28:46;;;;;;;1.20;1.20;;;;;;;13.63;90.74;96899.59;5067277;28;20476;-61
2023/06/30 02:31:13;;;;;;;1.10;1.10;;;;;;;13.77;90.78;96971.22;5052463;28;20508;-63
2023/06/30 02:33:41;;;;;;;1.08;1.08;;;;;;;13.54;92.37;96906.72;5047076;28;20081;-61
2023/06/30 02:36:07;;;;;;;1.02;1.02;;;;;;;13.41;91.81;96864.56;5046835;28;20052;-63
2023/06/30 02:38:34;;;;;;;1.02;1.02;;;;;;;13.62;92.09;96936.97;5046829;28;20148;-62
2023/06/30 02:41:01;;;;;;;1.20;1.20;;;;;;;13.72;91.79;96940.19;5045281;28;20140;-63
2023/06/30 02:43:27;;;;;;;1.05;1.05;;;;;;;13.94;90.48;96952.97;5045530;28;20051;-61
2023/06/30 02:45:54;;;;;;;1.10;1.10;;;;;;;13.89;90.89;96939.44;5045458;28;20408;-62
2023/06/30 02:48:21;;;;;;;1.15;1.15;;;;;;;13.92;88.80;96950.59;5047157;28;20057;-61
2023/06/30 02:50:47;;;;;;;1.00;1.00;;;;;;;13.96;89.47;96967.31;5046756;28;20048;-61
2023/06/30 02:53:14;;;;;;;1.10;1.10;;;;;;;13.43;90.08;96892.78;5046628;28;20545;-61
2023/06/30 02:55:41;;;;;;;1.10;1.10;;;;;;;13.53;89.88;96917.06;5046701;28;20504;-62
2023/06/30 02:58:07;;;;;;;1.30;1.30;;;;;;;13.64;90.43;96929.03;5045127;28;20053;-62
2023/06/30 03:00:34;;;;;;;1.00;1.00;;;;;;;13.61;91.38;96929.81;5046439;28;20111;-61
2023/06/30 03:03:01;;;;;;;1.10;1.10;;;;;;;13.48;92.68;96914.66;5046775;28;20040;-63
2023/06/30 03:05:29;;;;;;;1.13;1.13;;;;;;;13.43;92.65;96901.13;5045183;28;20060;-61
2023/06/30 03:07:55;;;;;;;1.00;1.00;;;;;;;13.81;92.72;96955.34;5046578;28;20495;-62
2023/06/30 03:10:22;;;;;;;1.00;1.00;;;;;;;13.81;92.62;96948.97;5045288;28;20061;-61
2023/06/30 03:12:49;;;;;;;1.10;1.10;;;;;;;13.86;90.41;96935.47;5046073;28;20064;-61
2023/06/30 03:15:15;;;;;;;1.13;1.13;;;;;;;13.64;90.82;96890.06;5046562;28;20160;-62
2023/06/30 03:17:42;;;;;;;1.23;1.23;;;;;;;14.00;91.14;96951.41;5046582;28;20771;-62
2023/06/30 03:20:12;;;;;;;1.10;1.10;;;;;;;13.89;89.74;96897.66;5044645;28;20167;-62
2023/06/30 03:22:40;;;;;;;1.17;1.17;;;;;;;14.23;89.34;96965.75;5045878;28;20065;-64
2023/06/30 03:25:08;;;;;;;1.33;1.33;;;;;;;13.96;88.90;96914.41;5045982;28;20056;-62
2023/06/30 03:27:35;;;;;;;1.10;1.10;;;;;;;14.21;89.18;96954.22;5045908;28;20060;-61
2023/06/30 03:30:04;;;;;;;1.17;1.17;;;;;;;14.15;87.90;96914.00;5049541;28;20515;-61
2023/06/30 03:32:31;;;;;;;1.25;1.25;;;;;;;14.15;88.22;96919.56;5064486;28;20131;-62
2023/06/30 03:35:00;;;;;;;1.10;1.10;;;;;;;14.02;87.08;96898.88;5065752;28;20482;-61
2023/06/30 03:37:27;;;;;;;1.10;1.10;;;;;;;14.09;86.81;96893.31;5065944;28;20062;-62
2023/06/30 03:39:53;;;;;;;1.20;1.20;;;;;;;14.57;86.54;96953.88;5065663;28;20060;-62
2023/06/30 03:42:20;;;;;;;1.15;1.15;;;;;;;14.06;89.76;96930.31;5065833;28;20068;-61
2023/06/30 03:44:47;;;;;;;1.08;1.08;;;;;;;14.12;88.39;96889.72;5065703;28;20057;-62
2023/06/30 03:47:13;;;;;;;1.27;1.27;;;;;;;14.51;87.27;96954.69;5064364;28;20118;-60
2023/06/30 03:49:40;;;;;;;1.00;1.00;;;;;;;14.39;85.47;96907.69;5064213;28;20093;-62
2023/06/30 03:52:07;;;;;;;1.10;1.10;;;;;;;14.00;85.51;96824.09;5065476;28;20048;-61
2023/06/30 03:54:34;;;;;;;1.20;1.20;;;;;;;14.57;87.68;96902.91;5065272;28;20075;-62
2023/06/30 03:57:00;;;;;;;1.40;1.40;;;;;;;14.66;87.62;96889.34;5065427;28;20051;-62
2023/06/30 03:59:27;;;;;;;1.20;1.20;;;;;;;15.31;85.93;96942.59;5065610;28;20106;-61
2023/06/30 04:01:54;;;;;;;1.20;1.20;;;;;;;15.15;84.14;96889.22;5063819;28;20052;-62
2023/06/30 04:04:20;;;;;;;1.20;1.20;;;;;;;15.47;83.02;96951.38;5065831;28;20057;-59
2023/06/30 04:06:48;;;;;;;1.30;1.30;;;;;;;15.43;83.20;96933.81;5063652;28;20052;-61
2023/06/30 04:09:15;;;;;;;1.30;1.30;;;;;;;15.72;82.54;96951.25;5063581;28;20048;-61
2023/06/30 04:11:42;;;;;;;1.20;1.20;;;;;;;15.63;82.89;96923.78;5064512;28;20048;-61
2023/06/30 04:14:08;;;;;;;1.40;1.40;;;;;;;15.73;82.94;96920.13;5065033;28;20062;-63
2023/06/30 04:16:35;;;;;;;1.30;1.30;;;;;;;16.03;81.72;96939.91;5063915;28;20801;-60
2023/06/30 04:19:02;;;;;;;1.52;1.52;;;;;;;16.23;80.69;96949.34;5064752;28;20058;-61
2023/06/30 04:21:28;;;;;;;1.50;1.50;;;;;;;16.13;79.22;96927.88;5063135;28;20490;-62
2023/06/30 04:23:55;;;;;;;1.50;1.50;;;;;;;16.33;80.62;96954.09;5063588;28;20439;-60
2023/06/30 04:26:22;;;;;;;1.58;1.58;;;;;;;16.15;81.04;96903.13;5064632;28;20510;-61
2023/06/30 04:28:49;;;;;;;1.33;1.33;;;;;;;15.80;80.28;96836.31;5063140;28;20532;-61
2023/06/30 04:31:15;;;;;;;1.50;1.50;;;;;;;16.24;79.15;96892.25;5051195;28;20053;-62
2023/06/30 04:33:42;;;;;;;1.50;1.50;;;;;;;16.41;78.00;96924.88;5044093;28;20049;-63
2023/06/30 04:36:09;;;;;;;1.70;1.70;;;;;;;16.84;78.14;96939.31;5043123;28;20084;-61
2023/06/30 04:38:35;;;;;;;1.50;1.50;;;;;;;16.97;78.00;96953.59;5044490;28;20081;-61
2023/06/30 04:41:02;;;;;;;1.60;1.60;;;;;;;17.14;76.75;96958.22;5055977;28;20111;-67
2023/06/30 04:43:29;;;;;;;1.45;1.45;;;;;;;17.32;76.20;96936.44;5062500;28;20048;-66
2023/06/30 04:45:57;;;;;;;1.92;1.92;;;;;;;17.30;76.36;96947.25;5063312;28;20056;-67
2023/06/30 04:48:24;;;;;;;1.73;1.73;;;;;;;17.52;75.32;96940.22;5063301;28;20075;-67
2023/06/30 04:50:51;;;;;;;1.73;1.73;;;;;;;17.67;73.13;96930.47;5062968;28;20420;-68
2023/06/30 04:53:17;;;;;;;1.73;1.73;;;;;;;17.91;73.46;96934.94;5064600;28;20068;-68
2023/06/30 04:55:44;;;;;;;1.73;1.73;;;;;;;18.30;73.56;96945.59;5059377;28;20693;-67
2023/06/30 04:58:11;;;;;;;1.88;1.88;;;;;;;18.47;72.63;96961.41;5059547;28;20124;-67
2023/06/30 05:00:39;;;;;;;1.90;1.90;;;;;;;18.39;71.79;96931.88;5044097;28;20139;-66
2023/06/30 05:03:06;;;;;;;1.88;1.88;;;;;;;18.59;72.12;96941.19;5044440;28;20060;-68
2023/06/30 05:05:33;;;;;;;2.00;2.00;;;;;;;18.92;71.63;96943.81;5044105;28;20049;-68
2023/06/30 05:07:59;;;;;;;1.77;1.77;;;;;;;19.11;69.60;96959.91;5044197;28;20059;-68
2023/06/30 05:10:26;;;;;;;2.00;2.00;;;;;;;18.87;69.63;96891.00;5044160;28;20052;-68
2023/06/30 05:12:53;;;;;;;1.70;1.70;;;;;;;19.06;70.49;96925.94;5042714;28;20060;-67
2023/06/30 05:15:20;;;;;;;1.92;1.92;;;;;;;18.59;74.73;96908.28;5043830;28;20056;-68
2023/06/30 05:17:46;;;;;;;1.83;1.83;;;;;;;18.70;74.34;96914.53;5043996;28;20484;-67
2023/06/30 05:20:13;;;;;;;1.73;1.73;;;;;;;18.97;73.69;96923.69;5043694;28;20049;-68
2023/06/30 05:22:40;;;;;;;1.80;1.80;;;;;;;19.34;72.46;96953.53;5043844;28;20575;-67
2023/06/30 05:25:07;;;;;;;1.77;1.77;;;;;;;19.38;71.89;96931.75;5043915;28;20045;-67
2023/06/30 05:27:34;;;;;;;1.85;1.85;;;;;;;19.67;70.55;96948.88;5042561;28;20053;-68
2023/06/30 05:30:01;;;;;;;1.80;1.80;;;;;;;19.82;69.49;96964.22;5046631;28;20048;-68
2023/06/30 05:32:28;;;;;;;1.98;1.98;;;;;;;19.81;69.32;96942.94;5063877;28;20078;-68
2023/06/30 05:34:54;;;;;;;1.73;1.73;;;;;;;20.02;69.50;96956.56;5064113;28;20054;-68
2023/06/30 05:37:21;;;;;;;1.73;1.73;;;;;;;19.67;68.79;96881.41;5062138;28;20052;-68
2023/06/30 05:39:48;;;;;;;1.88;1.88;;;;;;;18.79;68.02;96698.69;5063578;28;20057;-67
2023/06/30 05:42:14;;;;;;;2.10;2.10;;;;;;;20.58;67.60;96944.09;5063710;28;20068;-68
2023/06/30 05:44:41;;;;;;;2.00;2.00;;;;;;;20.36;66.29;96881.88;5064901;28;20063;-66
2023/06/30 05:47:08;;;;;;;1.90;1.90;;;;;;;20.83;65.10;96935.81;5066469;28;20053;-66
2023/06/30 05:49:34;;;;;;;2.13;2.13;;;;;;;20.95;65.87;96933.09;5066122;28;20080;-66
2023/06/30 05:52:01;;;;;;;2.20;2.20;;;;;;;20.77;66.13;96895.34;5066167;28;20055;-61
2023/06/30 05:54:28;;;;;;;2.33;2.30;;;;;;;21.08;65.52;96907.84;5063034;28;20074;-66
2023/06/30 05:56:54;;;;;;;2.17;2.17;;;;;;;21.54;65.54;96951.69;5066059;28;20059;-65
2023/06/30 05:59:21;;;;;;;2.20;2.20;;;;;;;21.19;66.27;96885.81;5067061;28;20048;-61
2023/06/30 06:01:48;;;;;;;2.20;2.20;;;;;;;21.49;65.91;96924.84;5067097;28;20112;-62
2023/06/30 06:04:18;;;;;;;2.05;2.05;;;;;;;21.64;62.99;96917.56;5064469;28;20044;-66
2023/06/30 06:06:45;;;;;;;2.58;2.47;;;;;;;22.18;61.72;96952.25;5063614;28;20072;-65
2023/06/30 06:09:11;;;;;;;2.42;2.38;;;;;;;22.40;61.42;96972.94;5063998;28;20056;-61
2023/06/30 06:11:39;;;;;;;2.45;2.38;;;;;;;21.58;59.46;96840.41;5064908;28;20060;-64
2023/06/30 06:14:05;;;;;;;2.70;2.60;;;;;;;22.14;59.46;96889.50;5065631;28;20427;-65
2023/06/30 06:16:32;;;;;;;2.70;2.60;;;;;;;22.55;60.71;96931.00;5065385;28;20075;-66
2023/06/30 06:18:59;;;;;;;2.72;2.63;;;;;;;22.22;60.81;96853.38;5066914;28;20122;-68
2023/06/30 06:21:27;;;;;;;2.70;2.60;;;;;;;23.00;58.94;96956.94;5062001;28;20121;-68
2023/06/30 06:23:56;;;;;;;2.72;2.63;;;;;;;22.26;58.61;96823.00;5066324;28;20049;-65
2023/06/30 06:26:23;;;;;;;2.90;2.80;;;;;;;22.82;57.09;96865.53;5065885;28;20504;-62
2023/06/30 06:28:51;;;;;;;2.72;2.63;;;;;;;23.28;56.65;96912.81;5066033;28;20052;-64
2023/06/30 06:31:17;;;;;;;3.03;2.92;;;;;;;23.33;55.53;96887.56;5065414;28;20531;-64
2023/06/30 06:33:44;;;;;;;3.03;2.92;;;;;;;23.82;54.82;96944.41;5063598;28;20052;-66
2023/06/30 06:36:11;;;;;;;2.80;2.70;;;;;;;23.57;52.37;96919.03;5065258;28;20051;-65
2023/06/30 06:38:38;;;;;;;3.05;2.95;;;;;;;23.25;52.50;96871.31;5060881;28;20128;-66
2023/06/30 06:41:05;;;;;;;2.90;2.80;;;;;;;23.18;50.67;96832.78;5064206;28;20513;-69
2023/06/30 06:43:32;;;;;;;3.13;3.03;;;;;;;23.73;49.35;96880.03;5064826;28;20129;-62
2023/06/30 06:45:58;;;;;;;2.90;2.80;;;;;;;24.07;47.90;96909.53;5053604;28;20554;-66
2023/06/30 06:48:29;;;;;;;3.17;3.08;;;;;;;23.74;47.64;96878.78;5057025;28;20658;-71
2023/06/30 06:50:58;;;;;;;3.28;3.17;;;;;;;23.97;48.27;96945.47;5065676;28;20052;-66
2023/06/30 06:53:27;;;;;;;3.38;3.28;;;;;;;24.16;48.87;96923.72;5062843;28;20131;-63
2023/06/30 06:55:55;;;;;;;3.17;3.08;;;;;;;24.00;49.11;96927.56;5063259;28;20076;-67
2023/06/30 06:58:24;;;;;;;3.50;3.40;;;;;;;24.25;48.62;96904.75;5066642;28;20060;-65
2023/06/30 07:00:52;;;;;;;3.20;3.10;;;;;;;24.48;48.24;96923.28;5064249;28;20058;-75
2023/06/30 07:03:19;;;;;;;3.00;2.90;;;;;;;24.83;47.81;96933.22;5060535;28;20048;-68
2023/06/30 07:05:47;;;;;;;3.08;2.97;;;;;;;24.71;48.30;96892.41;5064353;28;21487;-68
2023/06/30 07:08:16;;;;;;;3.17;3.08;;;;;;;25.01;47.50;96925.56;5062176;28;20052;-70
2023/06/30 07:10:44;;;;;;;3.70;3.60;;;;;;;25.07;44.85;96937.84;5059498;28;20048;-68
2023/06/30 07:13:11;;;;;;;3.40;3.30;;;;;;;25.09;44.30;96934.56;5056307;28;20061;-68
2023/06/30 07:15:38;;;;;;;3.13;3.03;;;;;;;24.81;43.36;96879.84;5064521;28;20052;-71
2023/06/30 07:18:04;;;;;;;3.20;3.10;;;;;;;24.61;42.95;96876.59;5066042;28;20529;-68
2023/06/30 07:20:31;;;;;;;3.30;3.20;;;;;;;25.16;43.07;96918.06;5062787;28;20139;-65
2023/06/30 07:22:58;;;;;;;3.42;3.33;;;;;;;25.36;43.15;96939.53;5065800;28;20059;-67
2023/06/30 07:25:25;;;;;;;3.10;3.00;;;;;;;25.32;43.84;96931.16;5063926;28;20696;-63
2023/06/30 07:27:55;;;;;;;3.33;3.22;;;;;;;24.96;44.00;96863.03;5062154;28;20048;-74
2023/06/30 07:30:24;;;;;;;3.28;3.17;;;;;;;25.11;43.85;96938.50;5058804;28;20067;-71
2023/06/30 07:32:51;;;;;;;3.47;3.38;;;;;;;24.60;45.19;96930.88;5062982;28;20053;-68
2023/06/30 07:35:18;;;;;;;3.03;2.92;;;;;;;25.00;45.90;96937.38;5062072;28;20135;-68
2023/06/30 07:37:45;;;;;;;3.50;3.40;;;;;;;24.86;45.01;96882.06;5062593;28;20085;-64
2023/06/30 07:40:13;;;;;;;3.50;3.40;;;;;;;25.30;45.38;96942.16;5060302;28;20052;-65
2023/06/30 07:42:46;;;;;;;3.58;3.47;;;;;;;25.04;44.23;96873.59;5059459;28;20061;-63
2023/06/30 07:45:14;;;;;;;3.70;3.60;;;;;;;24.96;44.18;96848.88;5064675;28;20041;-68
2023/06/30 07:47:42;;;;;;;3.30;3.20;;;;;;;25.26;45.70;96930.97;5065454;28;20064;-64
2023/06/30 07:50:12;;;;;;;3.40;3.30;;;;;;;24.84;44.68;96887.41;5065239;28;20048;-68
2023/06/30 07:52:42;;;;;;;3.67;3.58;;;;;;;25.44;44.22;96933.06;5063992;28;20048;-65
2023/06/30 07:55:12;;;;;;;3.63;3.53;;;;;;;25.47;43.76;96874.59;5062153;28;20513;-69
2023/06/30 07:57:39;;;;;;;3.45;3.35;;;;;;;25.87;43.96;96924.25;5065271;28;20059;-70
2023/06/30 08:00:06;;;;;;;3.55;3.45;;;;;;;25.59;43.62;96865.97;5065196;28;20055;-62
2023/06/30 08:02:33;;;;;;;3.78;3.67;;;;;;;25.80;44.01;96881.22;5061381;28;20427;-69
2023/06/30 08:05:00;;;;;;;3.67;3.58;;;;;;;26.06;43.85;96871.09;5078652;28;20058;-65
2023/06/30 08:07:27;;;;;;;3.65;3.55;;;;;;;26.38;43.78;96882.53;5064326;28;20048;-67
2023/06/30 08:10:14;;;;;;;3.88;3.78;;;;;;;26.64;43.65;96923.50;5064215;28;20048;-64
2023/06/30 08:12:41;;;;;;;3.78;3.67;;;;;;;26.73;43.29;96922.69;5049358;28;20122;-68
2023/06/30 08:15:08;;;;;;;3.95;3.85;;;;;;;26.67;41.91;96842.97;5062532;28;20063;-68
2023/06/30 08:17:34;;;;;;;3.70;3.60;;;;;;;26.92;42.00;96912.78;5064409;28;20058;-61
2023/06/30 08:20:21;;;;;;;4.20;4.10;;;;;;;26.91;42.52;96910.44;5057607;28;20102;-63
2023/06/30 08:22:48;;;;;;;3.72;3.63;;;;;;;26.83;42.26;96878.72;5061823;28;20052;-67
2023/06/30 08:25:15;;;;;;;3.88;3.78;;;;;;;26.84;42.39;96868.94;5059646;28;20045;-63
2023/06/30 08:27:43;;;;;;;3.58;3.47;;;;;;;25.13;42.99;96824.63;5058573;28;20491;-69
2023/06/30 08:30:09;;;;;;;3.90;3.80;;;;;;;25.87;44.81;96910.06;5061277;28;20841;-71
2023/06/30 08:32:37;;;;;;;3.80;3.70;;;;;;;26.54;43.38;96915.47;5061698;28;20102;-68
2023/06/30 08:35:04;;;;;;;3.60;3.50;;;;;;;26.86;42.29;96900.50;5061072;28;20511;-65
2023/06/30 08:37:31;;;;;;;3.78;3.67;;;;;;;27.01;42.17;96906.28;5061321;28;20049;-66
2023/06/30 08:39:58;;;;;;;4.10;4.00;;;;;;;26.54;40.62;96782.69;5062304;28;20060;-66
2023/06/30 08:42:28;;;;;;;4.18;4.07;;;;;;;27.10;40.39;96852.97;5058817;28;20062;-63
2023/06/30 08:44:57;;;;;;;4.00;3.90;;;;;;;27.12;40.57;96856.13;5059133;28;20048;-61
2023/06/30 08:47:28;;;;;;;4.15;4.05;;;;;;;27.41;41.12;96859.09;5061739;28;20065;-63
2023/06/30 08:49:56;;;;;;;4.07;3.97;;;;;;;27.05;38.60;96810.97;5062952;28;20045;-70
2023/06/30 08:52:22;;;;;;;4.03;3.92;;;;;;;27.22;39.83;96786.50;5055176;28;20072;-70
2023/06/30 08:54:49;;;;;;;4.00;3.90;;;;;;;27.80;40.27;96865.56;5060896;28;20057;-62
2023/06/30 08:57:17;;;;;;;4.43;4.32;;;;;;;28.21;39.80;96889.41;5062665;28;20515;-62
2023/06/30 08:59:44;;;;;;;4.35;4.25;;;;;;;28.13;39.44;96844.22;5063745;28;20053;-69
2023/06/30 09:02:12;;;;;;;4.38;4.28;;;;;;;28.55;39.24;96880.94;5063923;28;20125;-69
2023/06/30 09:04:42;;;;;;;4.38;4.28;;;;;;;28.70;37.96;96889.47;5063930;28;20426;-69
2023/06/30 09:07:20;;;;;;;4.28;4.18;;;;;;;28.17;39.75;96837.53;5063627;28;20523;-69
2023/06/30 09:09:49;;;;;;;4.60;4.50;;;;;;;28.54;38.23;96867.19;5063875;28;20048;-62
2023/06/30 09:12:18;;;;;;;4.40;4.30;;;;;;;28.64;38.14;96883.72;5059007;28;20061;-62
2023/06/30 09:14:46;;;;;;;4.18;4.07;;;;;;;28.36;39.09;96833.19;5043522;28;20066;-61
2023/06/30 09:17:15;;;;;;;4.57;4.47;;;;;;;28.58;38.55;96865.69;5043648;28;20053;-63
2023/06/30 09:19:42;;;;;;;4.60;4.50;;;;;;;28.50;38.33;96878.78;5043434;28;20049;-62
2023/06/30 09:22:09;;;;;;;4.43;4.32;;;;;;;27.73;38.41;96826.09;5043738;28;20057;-64
2023/06/30 09:24:55;;;;;;;4.22;4.13;;;;;;;27.31;40.28;96857.59;5043392;28;20118;-68
2023/06/30 09:27:26;;;;;;;4.00;3.90;;;;;;;27.95;39.99;96861.50;5044224;28;20059;-69
2023/06/30 09:29:54;;;;;;;4.10;4.00;;;;;;;27.92;38.22;96813.25;5059502;28;20052;-69
2023/06/30 09:32:31;;;;;;;4.60;4.50;;;;;;;28.59;37.71;96852.25;5051013;28;20046;-69
2023/06/30 09:35:06;;;;;;;4.50;4.40;;;;;;;28.38;36.89;96811.47;5063140;28;21088;-62
2023/06/30 09:37:43;;;;;;;4.07;3.97;;;;;;;27.36;39.27;96851.22;5063815;28;20044;-64
2023/06/30 09:40:14;;;;;;;3.85;3.75;;;;;;;27.50;38.99;96859.03;5063421;28;20056;-69
2023/06/30 09:42:43;;;;;;;3.92;3.83;;;;;;;27.90;39.25;96833.69;5063659;28;20048;-69
2023/06/30 09:45:13;;;;;;;4.17;4.07;;;;;;;28.21;39.35;96803.91;5063825;28;20101;-62
2023/06/30 09:47:41;;;;;;;4.60;4.50;;;;;;;28.57;39.55;96814.88;5062973;28;20084;-62
2023/06/30 09:50:09;;;;;;;4.53;4.43;;;;;;;28.53;38.45;96808.63;5063268;28;20486;-69
2023/06/30 09:52:37;;;;;;;4.15;4.05;;;;;;;29.14;37.75;96847.38;5062208;28;20070;-62
2023/06/30 09:55:10;;;;;;;4.30;4.20;;;;;;;29.62;37.79;96845.69;5063375;28;20052;-62
2023/06/30 09:57:41;;;;;;;4.32;4.22;;;;;;;29.91;37.16;96824.72;5063166;28;20580;-70
2023/06/30 10:00:08;;;;;;;4.35;4.25;;;;;;;29.83;36.27;96778.66;5063406;28;20140;-63
2023/06/30 10:03:03;;;;;;;;;;;;;;;30.27;36.29;96844.81;5059388;28;20059;-70
2023/06/30 10:05:30;;;;;;;4.32;4.22;;;;;;;30.00;36.06;96804.56;5034727;28;20504;-62
2023/06/30 10:08:02;;;;;;;4.47;4.38;;;;;;;29.98;36.18;96830.78;5042320;28;20076;-62
2023/06/30 10:10:29;;;;;;;4.32;4.22;;;;;;;29.97;37.14;96832.03;5042022;28;20545;-63
2023/06/30 10:13:00;;;;;;;4.55;4.45;;;;;;;30.21;37.09;96826.84;5043665;28;20049;-63
2023/06/30 10:15:27;;;;;;;4.97;4.88;;;;;;;30.35;37.15;96831.66;5041849;28;20045;-62
2023/06/30 10:17:57;;;;;;;4.53;4.43;;;;;;;30.03;35.93;96804.34;5043684;28;20057;-62
2023/06/30 10:20:25;;;;;;;4.85;4.75;;;;;;;30.58;35.72;96821.97;5041921;28;20059;-61
2023/06/30 10:23:13;;;;;;;4.55;4.45;;;;;;;29.80;35.20;96668.28;5042186;28;20098;-64
2023/06/30 10:25:40;;;;;;;4.78;4.68;;;;;;;30.55;34.37;96771.53;5043210;28;20581;-69
2023/06/30 10:28:08;;;;;;;4.60;4.50;;;;;;;30.84;34.71;96801.91;5043498;28;20052;-62
2023/06/30 10:30:35;;;;;;;4.85;4.75;;;;;;;31.17;35.47;96821.31;5043072;28;20045;-62
2023/06/30 10:33:02;;;;;;;4.78;4.68;;;;;;;30.84;35.52;96790.44;5046350;28;20048;-62
2023/06/30 10:35:30;;;;;;;4.93;4.82;;;;;;;30.86;35.50;96796.44;5045763;28;20110;-68
2023/06/30 10:37:57;;;;;;;5.03;4.93;;;;;;;30.83;37.28;96815.41;5047369;28;20053;-61
2023/06/30 10:40:29;;;;;;;5.15;5.05;;;;;;;30.98;36.64;96816.00;5046698;28;20053;-61
2023/06/30 10:42:57;;;;;;;5.07;4.97;;;;;;;31.46;36.14;96809.53;5046736;28;20447;-70
2023/06/30 10:45:28;;;;;;;4.43;4.32;;;;;;;31.53;35.73;96809.81;5046383;28;20049;-62
2023/06/30 10:47:55;;;;;;;4.53;4.43;;;;;;;31.36;35.31;96805.31;5045082;28;20134;-70
2023/06/30 10:50:23;;;;;;;4.60;4.50;;;;;;;31.07;35.59;96748.41;5044912;28;20145;-70
2023/06/30 10:52:54;;;;;;;4.50;4.40;;;;;;;31.41;35.26;96795.97;5046617;28;20056;-63
2023/06/30 10:55:27;;;;;;;5.07;4.97;;;;;;;31.16;34.97;96779.69;5044875;28;20053;-62
2023/06/30 10:57:54;;;;;;;4.82;4.72;;;;;;;31.00;36.64;96789.75;5040076;28;20061;-62
2023/06/30 11:00:24;;;;;;;5.00;4.90;;;;;;;31.02;36.80;96786.38;5026179;28;20531;-63
2023/06/30 11:02:56;;;;;;;4.90;4.80;;;;;;;31.22;37.37;96789.09;5026471;28;20516;-69
2023/06/30 11:05:25;;;;;;;4.43;4.33;;;;;;;31.37;37.31;96778.22;5024779;28;20511;-68
2023/06/30 11:07:53;;;;;;;5.22;5.13;;;;;;;31.49;36.59;96776.97;5026638;28;20296;-62
2023/06/30 11:10:30;;;;;;;4.65;4.55;;;;;;;31.46;36.14;96780.88;5026842;28;20055;-63
2023/06/30 11:12:57;;;;;;;4.95;4.85;;;;;;;31.56;36.34;96779.34;5026527;28;20061;-68
2023/06/30 11:15:34;;;;;;;4.95;4.85;;;;;;;31.66;35.13;96772.06;5025911;28;20569;-68
2023/06/30 11:18:06;;;;;;;5.07;4.97;;;;;;;31.57;34.09;96743.69;5041375;28;20522;-62
2023/06/30 11:20:33;;;;;;;5.13;5.03;;;;;;;30.81;35.35;96703.56;4995327;28;20065;-63
2023/06/30 11:23:02;;;;;;;4.80;4.70;;;;;;;31.15;34.53;96766.66;5026045;28;20049;-67
2023/06/30 11:25:30;;;;;;;4.82;4.72;;;;;;;30.92;35.84;96726.50;5042863;28;20521;-64
2023/06/30 11:27:59;;;;;;;4.97;4.88;;;;;;;31.23;35.85;96751.34;5042246;28;20075;-72
2023/06/30 11:30:26;;;;;;;5.10;5.00;;;;;;;29.83;35.19;96669.34;5045329;28;20064;-68
2023/06/30 11:32:56;;;;;;;4.55;4.45;;;;;;;29.17;35.73;96481.94;5036946;28;20057;-67
2023/06/30 11:35:23;;;;;;;4.25;4.15;;;;;;;31.20;35.00;96748.72;5035847;28;20499;-71
2023/06/30 11:37:51;;;;;;;4.47;4.38;;;;;;;31.03;34.83;96730.72;5044382;28;20076;-62